Berovo, Macedonia
Current Conditions -  °F | °C
As of 7:00 PM on Saturday 20 Dec 2014 (Local Time) from LWSK Reporting Station
Haze Haze  
Wind Chill:   Ceiling: Unl
Heat Index:   Visibility: 3mi
Dew Point:   Wind: 0mph
Humidity: 93%   Direction: NA
Pressure: 30.21"   Gusts: NA
Location:  41.72°N, 22.86°E
Report Text: LWSK 201700Z 00000KT 5000 BR SCT050 04/03 Q1023 NOSIG
Loading
Personal Weather Stations






























Interactive Weather Map New forecast layout! Learn more

10-Day Weather Forecast

Advertisements
Track Severe Weather on mobile